Time;durP1;ratioP1;P1;durP2;ratioP2;P2;SDS_P1;SDS_P2;PMS_P1;PMS_P2;Temp;Humidity;BMP_temperature;BMP_pressure;BME280_temperature;BME280_humidity;BME280_pressure;Samples;Min_cycle;Max_cycle;Signal;HPM_P1;HPM_P2
2023/08/16 00:00:03;;;;;;;11.60;6.43;;;;;;;18.21;100.00;101247.19;6105151;28;20044;-66
2023/08/16 00:03:00;;;;;;;16.08;6.80;;;;;;;18.03;100.00;101244.00;6097802;28;20025;-67
2023/08/16 00:05:55;;;;;;;11.80;7.35;;;;;;;18.11;100.00;101260.03;6097164;28;20456;-67
2023/08/16 00:08:53;;;;;;;14.52;7.03;;;;;;;18.05;100.00;101271.50;6097658;28;20047;-66
2023/08/16 00:11:48;;;;;;;11.85;7.38;;;;;;;17.95;100.00;101263.72;6101154;28;20028;-66
2023/08/16 00:14:43;;;;;;;11.63;6.30;;;;;;;18.02;100.00;101258.47;6096490;28;20530;-66
2023/08/16 00:17:39;;;;;;;14.30;6.57;;;;;;;17.93;100.00;101246.97;6097047;28;20037;-66
2023/08/16 00:20:34;;;;;;;13.80;5.50;;;;;;;17.90;100.00;101249.16;6097597;28;20039;-66
2023/08/16 00:23:29;;;;;;;15.63;6.67;;;;;;;17.90;100.00;101259.91;6100677;28;20032;-66
2023/08/16 00:26:25;;;;;;;15.63;6.70;;;;;;;17.84;100.00;101256.91;6103117;28;20025;-66
2023/08/16 00:29:20;;;;;;;14.07;7.17;;;;;;;17.79;100.00;101270.06;6113790;28;20476;-66
2023/08/16 00:32:15;;;;;;;14.63;6.67;;;;;;;18.00;100.00;101255.09;6102040;28;20024;-66
2023/08/16 00:35:12;;;;;;;17.67;6.90;;;;;;;17.70;100.00;101260.38;6101781;28;20025;-66
2023/08/16 00:38:07;;;;;;;10.55;6.47;;;;;;;17.47;100.00;101261.34;6101976;28;20025;-66
2023/08/16 00:41:02;;;;;;;14.37;7.00;;;;;;;17.63;100.00;101272.00;6101428;28;20052;-66
2023/08/16 00:43:58;;;;;;;14.70;6.93;;;;;;;17.52;100.00;101273.22;6110882;28;20487;-66
2023/08/16 00:46:53;;;;;;;11.53;6.63;;;;;;;17.38;100.00;101260.56;6110089;28;20025;-66
2023/08/16 00:49:49;;;;;;;10.93;5.78;;;;;;;17.56;100.00;101284.44;6101944;28;20032;-66
2023/08/16 00:52:44;;;;;;;13.75;6.43;;;;;;;17.66;100.00;101261.75;6100587;28;20039;-66
2023/08/16 00:55:39;;;;;;;13.67;6.13;;;;;;;17.48;100.00;101263.84;6100619;28;20025;-66
2023/08/16 00:58:35;;;;;;;14.20;7.13;;;;;;;17.66;100.00;101283.22;6101688;28;20294;-66
2023/08/16 01:01:31;;;;;;;10.90;6.22;;;;;;;17.76;100.00;101258.81;6101235;28;20047;-66
2023/08/16 01:04:26;;;;;;;10.60;6.25;;;;;;;17.54;100.00;101267.69;6101071;28;20041;-66
2023/08/16 01:07:21;;;;;;;12.40;6.63;;;;;;;17.57;100.00;101265.50;6101487;28;20040;-66
2023/08/16 01:10:16;;;;;;;11.50;6.53;;;;;;;17.65;100.00;101278.88;6102462;28;20024;-66
2023/08/16 01:13:15;;;;;;;14.27;6.30;;;;;;;17.49;100.00;101272.72;6101297;28;20033;-66
2023/08/16 01:16:11;;;;;;;13.65;6.93;;;;;;;17.36;100.00;101267.97;6107738;28;20486;-66
2023/08/16 01:19:10;;;;;;;10.48;5.40;;;;;;;17.06;100.00;101255.38;6104609;28;20468;-66
2023/08/16 01:22:18;;;;;;;13.90;6.32;;;;;;;17.16;100.00;101269.38;6100979;28;20021;-66
2023/08/16 01:25:48;;;;;;;13.07;5.95;;;;;;;17.33;100.00;101278.19;6099324;28;20082;-66
2023/08/16 01:28:44;;;;;;;11.85;6.65;;;;;;;17.27;100.00;101277.03;6101044;28;20033;-66
2023/08/16 01:31:39;;;;;;;14.00;6.78;;;;;;;17.40;100.00;101269.25;6099716;28;20470;-66
2023/08/16 01:34:35;;;;;;;14.35;7.40;;;;;;;17.21;100.00;101291.13;6098453;28;20028;-66
2023/08/16 01:37:31;;;;;;;11.10;6.97;;;;;;;16.85;100.00;101263.19;6107887;28;20052;-66
2023/08/16 01:40:29;;;;;;;12.98;6.75;;;;;;;16.91;100.00;101273.19;6100345;28;20029;-66
2023/08/16 01:43:24;;;;;;;16.15;7.00;;;;;;;16.82;100.00;101274.25;6098557;28;20029;-66
2023/08/16 01:46:20;;;;;;;14.65;7.57;;;;;;;16.85;100.00;101287.28;6101558;28;20029;-66
2023/08/16 01:49:15;;;;;;;12.80;6.75;;;;;;;16.77;100.00;101263.22;6115723;28;20452;-67
2023/08/16 01:52:11;;;;;;;13.73;6.53;;;;;;;16.69;100.00;101285.47;6116279;28;20116;-66
2023/08/16 01:55:07;;;;;;;16.10;7.93;;;;;;;17.00;100.00;101266.78;6096817;28;20104;-66
2023/08/16 01:58:02;;;;;;;15.25;7.43;;;;;;;17.11;100.00;101282.50;6100007;28;20027;-66
2023/08/16 02:00:57;;;;;;;12.35;7.50;;;;;;;16.82;100.00;101282.28;6107333;28;20039;-66
2023/08/16 02:03:53;;;;;;;16.33;7.73;;;;;;;16.79;100.00;101286.13;6101883;28;20048;-66
2023/08/16 02:06:49;;;;;;;18.15;7.80;;;;;;;16.88;100.00;101278.88;6100232;28;20947;-66
2023/08/16 02:09:44;;;;;;;13.20;7.97;;;;;;;16.76;100.00;101280.28;6109579;28;20060;-66
2023/08/16 02:12:39;;;;;;;15.10;8.33;;;;;;;16.59;100.00;101296.38;6100742;28;20032;-66
2023/08/16 02:15:35;;;;;;;13.67;8.03;;;;;;;16.47;100.00;101302.25;6099391;28;20056;-66
2023/08/16 02:18:31;;;;;;;16.13;7.80;;;;;;;16.52;100.00;101287.31;6099552;28;20075;-66
2023/08/16 02:21:26;;;;;;;16.40;8.27;;;;;;;16.59;100.00;101301.75;6099928;28;20021;-67
2023/08/16 02:24:21;;;;;;;15.87;8.00;;;;;;;16.50;100.00;101299.19;6100657;28;20025;-65
2023/08/16 02:27:16;;;;;;;14.70;8.03;;;;;;;16.67;100.00;101293.69;6104202;28;20025;-65
2023/08/16 02:30:12;;;;;;;13.10;7.50;;;;;;;16.53;100.00;101291.72;6103777;28;20029;-66
2023/08/16 02:33:07;;;;;;;12.85;7.30;;;;;;;16.83;100.00;101300.84;6099291;28;20490;-66
2023/08/16 02:36:03;;;;;;;16.60;7.10;;;;;;;16.42;100.00;101278.63;6098919;28;20112;-64
2023/08/16 02:38:59;;;;;;;12.98;7.00;;;;;;;16.81;100.00;101296.66;6099124;28;20019;-64
2023/08/16 02:41:54;;;;;;;15.52;7.05;;;;;;;16.37;100.00;101281.00;6099216;28;20162;-64
2023/08/16 02:44:50;;;;;;;13.50;7.20;;;;;;;16.74;100.00;101295.69;6099114;28;20033;-65
2023/08/16 02:47:46;;;;;;;12.77;7.13;;;;;;;16.35;100.00;101298.22;6098782;28;20263;-65
2023/08/16 02:50:41;;;;;;;12.75;6.40;;;;;;;16.27;100.00;101299.09;6099056;28;20041;-64
2023/08/16 02:53:37;;;;;;;11.63;6.28;;;;;;;16.07;100.00;101300.41;6108508;28;20029;-64
2023/08/16 02:56:32;;;;;;;21.70;6.77;;;;;;;16.26;100.00;101310.78;6104148;28;20391;-65
2023/08/16 02:59:38;;;;;;;39.45;7.35;;;;;;;16.21;100.00;101306.94;6103000;28;20028;-64
2023/08/16 03:02:34;;;;;;;50.28;5.70;;;;;;;16.18;100.00;101297.41;6106378;28;20032;-64
2023/08/16 03:05:29;;;;;;;72.63;7.32;;;;;;;16.05;100.00;101297.06;6100811;28;20025;-64
2023/08/16 03:08:24;;;;;;;68.33;6.63;;;;;;;16.01;100.00;101301.06;6102862;28;20074;-64
2023/08/16 03:11:20;;;;;;;58.30;6.57;;;;;;;16.24;100.00;101307.44;6105424;28;20032;-65
2023/08/16 03:14:15;;;;;;;58.67;5.67;;;;;;;16.10;100.00;101305.44;6098027;28;20444;-65
2023/08/16 03:17:11;;;;;;;126.95;10.52;;;;;;;16.14;100.00;101298.75;6098048;28;20260;-65
2023/08/16 03:20:07;;;;;;;55.40;6.87;;;;;;;16.22;100.00;101298.75;6098087;28;20357;-64
2023/08/16 03:23:03;;;;;;;67.65;8.82;;;;;;;16.44;100.00;101324.00;6098042;28;20037;-65
2023/08/16 03:25:58;;;;;;;78.78;7.88;;;;;;;16.42;100.00;101321.47;6098319;28;20033;-65
2023/08/16 03:28:54;;;;;;;70.70;8.33;;;;;;;16.50;100.00;101312.59;6099196;28;20468;-65
2023/08/16 03:31:49;;;;;;;48.38;7.78;;;;;;;16.36;100.00;101327.50;6099478;28;20028;-65
2023/08/16 03:34:44;;;;;;;48.63;7.60;;;;;;;16.47;100.00;101329.03;6097256;28;20029;-65
2023/08/16 03:37:39;;;;;;;22.50;6.97;;;;;;;16.37;100.00;101321.16;6097795;28;20020;-65
2023/08/16 03:40:35;;;;;;;20.97;7.10;;;;;;;16.42;100.00;101334.88;6099455;28;20276;-64
2023/08/16 03:43:31;;;;;;;33.63;7.50;;;;;;;16.36;100.00;101319.47;6097345;28;20104;-64
2023/08/16 03:46:26;;;;;;;47.92;7.57;;;;;;;16.43;100.00;101325.84;6106169;28;20039;-64
2023/08/16 03:49:22;;;;;;;24.67;6.38;;;;;;;16.46;100.00;101328.19;6097910;28;20044;-64
2023/08/16 03:52:17;;;;;;;80.60;9.57;;;;;;;16.37;100.00;101347.91;6102519;28;20036;-65
2023/08/16 03:55:12;;;;;;;35.20;7.63;;;;;;;16.35;100.00;101320.50;6097113;28;20067;-65
2023/08/16 03:58:08;;;;;;;54.80;8.93;;;;;;;16.55;100.00;101327.19;6097703;28;20270;-65
2023/08/16 04:01:03;;;;;;;55.37;8.87;;;;;;;16.65;100.00;101327.84;6107660;28;20282;-66
2023/08/16 04:03:58;;;;;;;47.87;7.50;;;;;;;16.34;100.00;101337.53;6099047;28;20047;-66
2023/08/16 04:06:54;;;;;;;70.00;8.50;;;;;;;16.46;100.00;101349.59;6097554;28;20112;-66
2023/08/16 04:09:50;;;;;;;35.97;7.40;;;;;;;16.20;100.00;101362.28;6097897;28;20268;-66
2023/08/16 04:12:45;;;;;;;15.98;6.38;;;;;;;16.30;100.00;101373.69;6106869;28;20056;-66
2023/08/16 04:15:41;;;;;;;24.67;6.90;;;;;;;16.28;100.00;101362.28;6096892;28;20052;-66
2023/08/16 04:18:36;;;;;;;56.28;8.05;;;;;;;16.34;100.00;101372.34;6097524;28;20111;-66
2023/08/16 04:21:32;;;;;;;33.97;6.70;;;;;;;16.17;100.00;101377.88;6099502;28;20028;-66
2023/08/16 04:24:27;;;;;;;48.57;7.33;;;;;;;15.94;100.00;101369.63;6098374;28;20307;-66
2023/08/16 04:27:22;;;;;;;20.33;6.23;;;;;;;16.12;100.00;101364.97;6097424;28;20155;-65
2023/08/16 04:30:18;;;;;;;34.30;6.57;;;;;;;16.20;100.00;101373.00;6097169;28;20028;-64
2023/08/16 04:33:13;;;;;;;33.50;6.63;;;;;;;16.09;100.00;101381.34;6093538;28;20058;-64
2023/08/16 04:36:08;;;;;;;25.73;6.73;;;;;;;16.26;100.00;101367.00;6096355;28;20170;-64
2023/08/16 04:39:03;;;;;;;16.90;6.53;;;;;;;16.38;100.00;101378.22;6098941;28;20275;-64
2023/08/16 04:41:59;;;;;;;9.03;6.13;;;;;;;16.57;100.00;101415.41;6093881;28;20278;-64
2023/08/16 04:44:54;;;;;;;12.30;5.63;;;;;;;16.78;100.00;101410.34;6096417;28;20048;-64
2023/08/16 04:47:49;;;;;;;9.87;5.97;;;;;;;17.22;100.00;101416.13;6098151;28;20036;-63
2023/08/16 04:50:45;;;;;;;9.77;6.40;;;;;;;17.18;100.00;101420.16;6099066;28;20032;-66
2023/08/16 04:53:40;;;;;;;9.93;6.30;;;;;;;17.34;100.00;101412.06;6098998;28;20381;-64
2023/08/16 04:56:36;;;;;;;9.13;5.93;;;;;;;17.47;100.00;101414.22;6105544;28;20032;-64
2023/08/16 04:59:31;;;;;;;10.82;6.38;;;;;;;17.36;100.00;101406.53;6097225;28;20071;-64
2023/08/16 05:02:26;;;;;;;9.50;5.83;;;;;;;17.16;100.00;101409.63;6097046;28;20025;-64
2023/08/16 05:05:21;;;;;;;10.90;5.67;;;;;;;17.04;100.00;101416.34;6104756;28;20036;-64
2023/08/16 05:08:17;;;;;;;9.13;5.07;;;;;;;17.06;100.00;101405.47;6098580;28;20032;-65
2023/08/16 05:11:12;;;;;;;9.27;5.57;;;;;;;16.96;100.00;101420.91;6101145;28;20418;-64
2023/08/16 05:14:07;;;;;;;11.17;5.30;;;;;;;17.03;100.00;101432.59;6100455;28;20032;-65
2023/08/16 05:17:03;;;;;;;11.23;5.73;;;;;;;16.89;100.00;101412.69;6101207;28;20730;-64
2023/08/16 05:19:58;;;;;;;9.60;6.35;;;;;;;17.17;100.00;101423.88;6110351;28;20114;-64
2023/08/16 05:22:53;;;;;;;11.47;6.43;;;;;;;17.23;100.00;101432.03;6104630;28;20051;-65
2023/08/16 05:25:50;;;;;;;10.53;5.73;;;;;;;17.28;100.00;101434.22;6100318;28;20052;-64
2023/08/16 05:28:46;;;;;;;10.50;6.32;;;;;;;17.23;100.00;101437.41;6100837;28;20315;-64
2023/08/16 05:31:41;;;;;;;11.23;6.23;;;;;;;17.31;100.00;101447.28;6100908;28;20078;-64
2023/08/16 05:34:37;;;;;;;9.33;5.23;;;;;;;17.56;100.00;101443.53;6100023;28;20456;-65
2023/08/16 05:37:32;;;;;;;9.07;5.80;;;;;;;17.67;100.00;101436.94;6108741;28;20745;-64
2023/08/16 05:40:27;;;;;;;9.57;5.63;;;;;;;18.25;100.00;101447.22;6102281;28;20055;-64
2023/08/16 05:43:23;;;;;;;9.95;5.53;;;;;;;18.22;100.00;101431.44;6100305;28;20060;-65
2023/08/16 05:46:18;;;;;;;8.43;5.50;;;;;;;18.18;100.00;101438.22;6100632;28;20158;-65
2023/08/16 05:49:13;;;;;;;10.03;6.10;;;;;;;18.06;100.00;101431.56;6100389;28;20726;-66
2023/08/16 05:52:09;;;;;;;9.17;5.67;;;;;;;18.34;100.00;101454.22;6100634;28;20294;-66
2023/08/16 05:55:04;;;;;;;11.57;5.17;;;;;;;18.35;100.00;101458.53;6106304;28;20284;-66
2023/08/16 05:58:00;;;;;;;9.50;5.53;;;;;;;18.61;100.00;101442.97;6100335;28;20151;-66
2023/08/16 06:00:55;;;;;;;8.73;5.20;;;;;;;18.37;100.00;101424.31;6101031;28;20056;-66
2023/08/16 06:03:51;;;;;;;10.43;3.90;;;;;;;18.96;100.00;101441.47;6099456;28;20025;-66
2023/08/16 06:06:46;;;;;;;10.75;4.15;;;;;;;19.13;100.00;101443.00;6100185;28;20032;-66
2023/08/16 06:09:42;;;;;;;8.57;4.18;;;;;;;19.09;100.00;101462.34;6100955;28;20033;-66
2023/08/16 06:12:37;;;;;;;7.35;3.50;;;;;;;19.37;100.00;101466.94;6108475;28;20043;-66
2023/08/16 06:15:32;;;;;;;6.17;3.37;;;;;;;18.52;100.00;101470.88;6108832;28;20683;-66
2023/08/16 06:18:28;;;;;;;6.07;3.20;;;;;;;18.53;100.00;101461.84;6094694;28;20021;-66
2023/08/16 06:21:23;;;;;;;8.50;3.10;;;;;;;18.94;100.00;101473.88;6098988;28;20025;-66
2023/08/16 06:24:18;;;;;;;8.10;2.87;;;;;;;19.26;100.00;101455.78;6099037;28;20083;-66
2023/08/16 06:27:14;;;;;;;4.78;2.25;;;;;;;19.25;100.00;101472.94;6100819;28;20283;-66
2023/08/16 06:30:10;;;;;;;6.87;2.77;;;;;;;19.30;100.00;101465.13;6099806;28;20464;-66
2023/08/16 06:33:05;;;;;;;4.72;2.33;;;;;;;19.15;100.00;101464.31;6099200;28;20516;-66
2023/08/16 06:36:00;;;;;;;3.95;2.38;;;;;;;19.06;100.00;101482.38;6098469;28;20021;-65
2023/08/16 06:38:56;;;;;;;6.20;2.63;;;;;;;18.89;100.00;101446.72;6099147;28;20060;-65
2023/08/16 06:41:51;;;;;;;5.23;2.90;;;;;;;18.94;100.00;101465.81;6101826;28;20299;-65
2023/08/16 06:44:47;;;;;;;5.43;2.70;;;;;;;19.21;100.00;101458.19;6098713;28;20037;-66
2023/08/16 06:47:42;;;;;;;5.07;2.50;;;;;;;19.35;100.00;101452.00;6100694;28;20741;-66
2023/08/16 06:50:39;;;;;;;6.28;2.42;;;;;;;19.42;100.00;101458.34;6098589;28;20093;-66
2023/08/16 06:53:34;;;;;;;4.90;2.25;;;;;;;19.55;100.00;101463.88;6097813;28;20598;-65
2023/08/16 06:56:29;;;;;;;6.20;2.70;;;;;;;19.26;100.00;101459.31;6098615;28;20032;-65
2023/08/16 06:59:26;;;;;;;4.70;2.28;;;;;;;19.71;100.00;101460.16;6099419;28;20029;-66
2023/08/16 07:02:22;;;;;;;4.78;2.00;;;;;;;19.89;100.00;101471.41;6099624;28;20111;-66
2023/08/16 07:05:17;;;;;;;4.33;2.00;;;;;;;20.04;100.00;101458.72;6096974;28;20039;-66
2023/08/16 07:08:12;;;;;;;5.97;1.80;;;;;;;20.27;100.00;101482.84;6097637;28;20518;-66
2023/08/16 07:11:08;;;;;;;4.10;1.90;;;;;;;20.46;95.77;101485.78;6098335;28;20024;-66
2023/08/16 07:14:03;;;;;;;5.50;2.13;;;;;;;20.64;96.21;101466.44;6098636;28;20271;-66
2023/08/16 07:16:58;;;;;;;4.45;1.90;;;;;;;20.23;97.10;101490.44;6098058;28;20037;-66
2023/08/16 07:19:54;;;;;;;4.97;2.20;;;;;;;19.83;96.52;101486.44;6099342;28;20043;-66
2023/08/16 07:22:49;;;;;;;6.10;1.80;;;;;;;20.11;97.13;101498.16;6097759;28;20278;-66
2023/08/16 07:25:45;;;;;;;6.00;2.08;;;;;;;20.47;99.27;101497.34;6097635;28;20263;-66
2023/08/16 07:28:40;;;;;;;8.35;2.00;;;;;;;20.46;98.57;101503.78;6101237;28;20115;-66
2023/08/16 07:31:35;;;;;;;5.43;1.90;;;;;;;20.63;98.97;101484.47;6098307;28;20036;-66
2023/08/16 07:34:31;;;;;;;3.70;1.83;;;;;;;20.93;100.00;101504.03;6097357;28;20495;-65
2023/08/16 07:37:31;;;;;;;5.63;1.80;;;;;;;20.71;98.02;101499.69;6097349;28;20044;-66
2023/08/16 07:40:27;;;;;;;6.15;2.00;;;;;;;20.58;92.42;101496.84;6102959;28;20410;-65
2023/08/16 07:43:22;;;;;;;6.93;1.98;;;;;;;20.47;92.41;101490.13;6099734;28;20139;-66
2023/08/16 07:46:17;;;;;;;6.22;2.33;;;;;;;20.72;92.12;101507.59;6098356;28;20029;-66
2023/08/16 07:49:13;;;;;;;6.30;1.60;;;;;;;20.39;92.18;101500.19;6111713;28;20056;-66
2023/08/16 07:52:08;;;;;;;5.77;2.30;;;;;;;20.42;94.58;101494.41;6096231;28;20259;-65
2023/08/16 07:55:04;;;;;;;3.42;1.70;;;;;;;20.59;93.56;101501.22;6096535;28;20514;-66
2023/08/16 07:57:59;;;;;;;4.80;1.80;;;;;;;20.44;92.07;101486.97;6096901;28;20017;-65
2023/08/16 08:00:55;;;;;;;3.10;1.60;;;;;;;20.30;92.40;101504.84;6097536;28;20028;-65
2023/08/16 17:06:09;;;;;;;5.72;2.30;;;;;;;23.43;76.50;101379.47;6133393;28;20401;-66
2023/08/16 17:09:05;;;;;;;10.00;2.30;;;;;;;23.40;76.60;101379.91;6160931;28;20131;-66
2023/08/16 17:12:00;;;;;;;4.07;2.20;;;;;;;23.31;76.25;101364.94;6139807;28;20036;-65
2023/08/16 17:14:58;;;;;;;6.00;2.10;;;;;;;23.41;75.96;101373.44;6138785;28;20672;-66
2023/08/16 17:17:54;;;;;;;5.57;2.33;;;;;;;23.32;75.67;101361.16;6139437;28;20055;-66
2023/08/16 17:20:49;;;;;;;4.15;2.03;;;;;;;23.31;75.24;101354.09;6140741;28;20036;-66
2023/08/16 17:23:45;;;;;;;4.60;2.30;;;;;;;23.35;75.67;101366.16;6143891;28;20097;-66
2023/08/16 17:26:40;;;;;;;4.30;2.40;;;;;;;23.41;73.98;101362.63;6147374;28;20530;-66
2023/08/16 17:29:35;;;;;;;4.80;2.30;;;;;;;23.26;74.10;101358.50;6149699;28;20028;-66
2023/08/16 17:32:31;;;;;;;6.57;2.30;;;;;;;23.38;74.17;101362.22;6142425;28;20044;-68
2023/08/16 17:35:26;;;;;;;4.97;2.50;;;;;;;23.18;74.96;101345.19;6140757;28;20076;-67
2023/08/16 17:38:21;;;;;;;4.97;1.80;;;;;;;23.06;73.15;101343.13;6142469;28;20028;-67
2023/08/16 17:41:19;;;;;;;4.20;1.80;;;;;;;22.93;72.98;101353.16;6141994;28;20308;-68
2023/08/16 17:44:14;;;;;;;3.72;2.40;;;;;;;22.94;73.18;101365.63;6157484;28;20282;-65
2023/08/16 17:47:09;;;;;;;3.00;1.60;;;;;;;22.78;72.37;101376.88;6141939;28;20716;-67
2023/08/16 17:50:05;;;;;;;3.87;1.73;;;;;;;22.71;73.35;101376.91;6141912;28;20032;-67
2023/08/16 17:53:01;;;;;;;3.17;1.60;;;;;;;22.56;72.99;101356.50;6142050;28;20032;-67
2023/08/16 17:55:56;;;;;;;3.80;1.53;;;;;;;22.48;72.75;101371.88;6141121;28;20487;-68
2023/08/16 17:58:51;;;;;;;4.30;1.88;;;;;;;22.36;74.00;101389.78;6142064;28;20032;-67
2023/08/16 18:01:47;;;;;;;2.87;1.60;;;;;;;22.17;75.03;101385.16;6141480;28;20035;-67
2023/08/16 18:04:42;;;;;;;5.30;1.70;;;;;;;22.05;73.23;101385.94;6146161;28;20290;-67
2023/08/16 18:07:37;;;;;;;4.77;1.83;;;;;;;22.04;70.95;101401.31;6153077;28;20039;-67
2023/08/16 18:10:34;;;;;;;4.78;1.80;;;;;;;22.01;70.79;101387.41;6145133;28;20282;-67
2023/08/16 18:13:30;;;;;;;3.65;1.52;;;;;;;21.87;70.50;101390.09;6142668;28;20036;-66
2023/08/16 18:16:25;;;;;;;5.37;1.77;;;;;;;21.82;70.88;101402.50;6131286;28;20037;-65
2023/08/16 18:19:20;;;;;;;3.53;1.60;;;;;;;21.79;71.70;101403.75;6124692;28;20263;-67
2023/08/16 18:22:16;;;;;;;2.63;1.47;;;;;;;21.74;72.26;101405.38;6126319;28;20122;-65
2023/08/16 18:25:11;;;;;;;3.10;1.50;;;;;;;21.57;72.01;101404.88;6140312;28;20041;-66
2023/08/16 18:28:06;;;;;;;5.57;1.50;;;;;;;21.47;72.85;101414.41;6125089;28;20024;-66
2023/08/16 18:31:02;;;;;;;3.17;1.80;;;;;;;21.42;73.84;101427.63;6124886;28;20267;-66
2023/08/16 18:33:58;;;;;;;2.47;1.67;;;;;;;21.19;74.16;101414.44;6123824;28;20024;-66
2023/08/16 18:36:53;;;;;;;3.22;1.70;;;;;;;21.16;74.27;101434.56;6124849;28;20090;-66
2023/08/16 18:39:48;;;;;;;4.63;1.50;;;;;;;21.08;74.65;101431.16;6123616;28;20040;-65
2023/08/16 18:42:44;;;;;;;3.90;1.53;;;;;;;21.03;75.56;101418.25;6123648;28;20423;-65
2023/08/16 18:45:39;;;;;;;4.13;1.60;;;;;;;21.09;76.60;101414.78;6122410;28;20535;-66
2023/08/16 18:48:34;;;;;;;5.40;1.87;;;;;;;21.06;75.30;101434.00;6124203;28;20044;-65
2023/08/16 18:51:29;;;;;;;5.67;1.63;;;;;;;20.87;76.77;101433.88;6124423;28;20037;-66
2023/08/16 18:54:25;;;;;;;3.43;1.80;;;;;;;20.86;77.38;101429.50;6123403;28;20048;-66
2023/08/16 18:57:20;;;;;;;5.70;1.73;;;;;;;20.68;77.40;101424.59;6127117;28;20032;-66
2023/08/16 19:00:15;;;;;;;4.17;2.20;;;;;;;20.82;80.46;101439.84;6127285;28;20033;-66
2023/08/16 19:03:11;;;;;;;4.63;2.40;;;;;;;20.60;80.40;101427.44;6123128;28;20105;-66
2023/08/16 19:06:06;;;;;;;4.87;1.70;;;;;;;20.43;80.50;101431.41;6122288;28;20082;-66
2023/08/16 19:09:02;;;;;;;4.57;1.60;;;;;;;20.29;79.50;101443.09;6122802;28;20037;-66
2023/08/16 19:11:58;;;;;;;4.50;1.70;;;;;;;20.14;81.52;101443.94;6142658;28;20040;-66
2023/08/16 19:14:53;;;;;;;3.30;1.67;;;;;;;20.04;83.39;101442.56;6123354;28;20047;-67
2023/08/16 19:17:50;;;;;;;2.58;1.50;;;;;;;19.93;82.39;101434.97;6123308;28;20120;-66
2023/08/16 19:20:46;;;;;;;5.43;1.90;;;;;;;19.79;84.67;101433.13;6137495;28;20036;-66
2023/08/16 19:23:41;;;;;;;3.88;1.80;;;;;;;19.70;85.40;101440.50;6147172;28;20032;-66
2023/08/16 19:26:37;;;;;;;2.93;1.53;;;;;;;19.63;84.52;101442.25;6147508;28;20039;-66
2023/08/16 19:29:32;;;;;;;2.60;1.55;;;;;;;19.64;86.28;101454.72;6131084;28;20074;-66
2023/08/16 19:32:29;;;;;;;2.92;1.85;;;;;;;19.48;87.52;101422.63;6119889;28;20037;-66
2023/08/16 19:35:25;;;;;;;4.72;1.80;;;;;;;19.30;86.55;101422.09;6121885;28;20633;-66
2023/08/16 19:38:21;;;;;;;3.75;1.63;;;;;;;19.46;88.46;101440.78;6121316;28;20028;-66
2023/08/16 19:41:16;;;;;;;4.18;1.67;;;;;;;19.33;89.11;101433.34;6122817;28;20067;-66
2023/08/16 19:44:12;;;;;;;4.00;1.70;;;;;;;19.22;90.55;101432.94;6138093;28;20046;-66
2023/08/16 19:47:07;;;;;;;2.90;1.80;;;;;;;19.01;90.84;101421.09;6122717;28;20029;-66
2023/08/16 19:50:19;;;;;;;3.53;2.00;;;;;;;19.09;92.38;101430.06;6122394;28;20029;-66
2023/08/16 19:53:15;;;;;;;2.50;1.70;;;;;;;19.02;92.79;101425.41;6135426;28;20743;-67
2023/08/16 19:56:13;;;;;;;4.25;1.80;;;;;;;18.97;94.07;101427.84;6146835;28;20035;-66
2023/08/16 19:59:08;;;;;;;3.00;1.67;;;;;;;18.81;95.44;101417.22;6136816;28;20039;-66
2023/08/16 20:02:03;;;;;;;3.97;1.80;;;;;;;18.69;96.08;101413.34;6126762;28;20077;-66
2023/08/16 20:04:59;;;;;;;3.80;1.77;;;;;;;18.84;95.05;101418.72;6121735;28;20291;-66
2023/08/16 20:07:54;;;;;;;5.83;2.50;;;;;;;18.94;94.95;101401.31;6121769;28;20040;-66
2023/08/16 20:10:49;;;;;;;7.30;2.17;;;;;;;18.99;94.16;101404.31;6123732;28;20028;-66
2023/08/16 20:13:45;;;;;;;5.53;2.10;;;;;;;19.09;90.31;101420.16;6126280;28;20463;-66
2023/08/16 20:16:40;;;;;;;3.53;2.07;;;;;;;19.10;89.65;101413.78;6138036;28;20086;-66
2023/08/16 20:19:35;;;;;;;2.90;1.73;;;;;;;19.12;91.62;101421.63;6121781;28;20036;-66
2023/08/16 20:22:34;;;;;;;4.70;2.10;;;;;;;19.31;94.01;101413.03;6121732;28;20263;-66
2023/08/16 20:25:29;;;;;;;4.07;1.90;;;;;;;19.13;90.99;101410.72;6121059;28;20456;-66
2023/08/16 20:28:25;;;;;;;4.07;1.60;;;;;;;19.23;91.70;101415.81;6121630;28;20032;-66
2023/08/16 20:31:20;;;;;;;3.15;1.67;;;;;;;19.20;90.64;101408.94;6121968;28;20029;-66
2023/08/16 20:34:19;;;;;;;6.90;2.27;;;;;;;19.23;91.18;101422.03;6124800;28;20442;-66
2023/08/16 20:37:14;;;;;;;3.97;1.83;;;;;;;19.14;91.33;101415.06;6131172;28;20472;-66
2023/08/16 20:40:10;;;;;;;4.70;1.70;;;;;;;18.98;91.27;101412.53;6146280;28;20028;-67
2023/08/16 20:43:06;;;;;;;5.05;1.90;;;;;;;19.12;92.55;101414.41;6129112;28;20024;-67
2023/08/16 20:46:02;;;;;;;4.03;1.90;;;;;;;19.17;92.19;101451.50;6120887;28;20044;-67
2023/08/16 20:48:58;;;;;;;3.58;1.98;;;;;;;19.01;91.30;101439.06;6120910;28;20792;-67
2023/08/16 20:51:53;;;;;;;4.47;2.13;;;;;;;19.01;92.30;101456.03;6121574;28;20025;-66
2023/08/16 20:54:50;;;;;;;4.47;2.00;;;;;;;19.05;93.17;101451.13;6120967;28;20032;-67
2023/08/16 20:57:45;;;;;;;4.38;2.05;;;;;;;19.00;94.89;101438.22;6121024;28;20036;-67
2023/08/16 21:00:43;;;;;;;4.80;1.97;;;;;;;19.12;96.31;101461.97;6129230;28;20380;-66
2023/08/16 21:03:38;;;;;;;4.32;1.90;;;;;;;19.12;96.10;101445.84;6144695;28;20920;-67
2023/08/16 21:06:33;;;;;;;3.27;1.63;;;;;;;19.01;96.06;101437.22;6123848;28;20040;-67
2023/08/16 21:09:29;;;;;;;3.17;1.67;;;;;;;19.05;94.61;101434.16;6121479;28;20025;-66
2023/08/16 21:12:24;;;;;;;4.55;1.73;;;;;;;19.13;93.83;101436.78;6121091;28;20050;-67
2023/08/16 21:15:20;;;;;;;5.93;1.90;;;;;;;19.37;92.34;101433.81;6120231;28;20102;-67
2023/08/16 21:18:15;;;;;;;5.93;1.87;;;;;;;19.34;91.41;101415.34;6121302;28;20044;-66
2023/08/16 21:21:10;;;;;;;5.23;1.60;;;;;;;19.34;91.07;101412.66;6120942;28;20032;-67
2023/08/16 21:24:10;;;;;;;7.87;2.40;;;;;;;19.39;90.22;101421.03;6120006;28;20060;-67
2023/08/16 21:27:06;;;;;;;2.90;2.00;;;;;;;19.37;89.64;101402.38;6120932;28;20099;-67
2023/08/16 21:30:01;;;;;;;3.00;2.00;;;;;;;19.40;90.50;101411.94;6121157;28;20040;-67
2023/08/16 21:32:56;;;;;;;4.93;1.83;;;;;;;19.22;90.49;101393.44;6122526;28;20496;-66
2023/08/16 21:35:53;;;;;;;3.70;1.67;;;;;;;19.13;91.60;101389.22;6144685;28;20073;-67
2023/08/16 21:38:48;;;;;;;5.82;2.10;;;;;;;19.02;91.42;101377.03;6125316;28;20064;-66
2023/08/16 21:41:44;;;;;;;3.63;1.80;;;;;;;19.10;92.51;101383.34;6111796;28;20032;-66
2023/08/16 21:44:39;;;;;;;4.37;1.80;;;;;;;19.06;93.05;101392.78;6116995;28;20668;-66
2023/08/16 21:47:35;;;;;;;5.23;2.10;;;;;;;18.95;93.92;101386.03;6137365;28;20273;-66
2023/08/16 21:50:30;;;;;;;2.97;1.90;;;;;;;18.89;94.44;101392.97;6133990;28;20317;-66
2023/08/16 21:53:25;;;;;;;6.07;2.00;;;;;;;18.71;95.51;101367.44;6120787;28;20472;-66
2023/08/16 21:56:21;;;;;;;5.57;2.13;;;;;;;18.87;96.27;101378.88;6122740;28;20279;-66
2023/08/16 21:59:17;;;;;;;5.63;2.57;;;;;;;18.93;96.46;101388.91;6126281;28;20028;-66
2023/08/16 22:02:13;;;;;;;3.75;2.05;;;;;;;18.92;96.14;101387.22;6119434;28;20039;-66
2023/08/16 22:05:08;;;;;;;7.80;2.55;;;;;;;18.87;96.28;101384.25;6138474;28;20407;-66
2023/08/16 22:08:04;;;;;;;4.60;2.13;;;;;;;18.89;96.69;101374.16;6134831;28;20464;-66
2023/08/16 22:11:00;;;;;;;4.05;1.95;;;;;;;19.11;96.82;101401.13;6121717;28;20129;-66
2023/08/16 22:13:56;;;;;;;2.92;1.95;;;;;;;19.09;96.75;101387.88;6120835;28;20047;-66
2023/08/16 22:16:51;;;;;;;5.57;2.67;;;;;;;19.25;97.03;101400.31;6120769;28;20024;-66
2023/08/16 22:19:47;;;;;;;5.38;2.15;;;;;;;19.21;95.74;101402.56;6127627;28;20028;-67
2023/08/16 22:22:43;;;;;;;6.72;2.45;;;;;;;19.12;95.53;101379.47;6145940;28;20032;-66
2023/08/16 22:25:39;;;;;;;6.47;2.10;;;;;;;19.01;95.28;101370.00;6145390;28;20153;-66
2023/08/16 22:28:34;;;;;;;4.32;1.98;;;;;;;19.09;96.43;101387.88;6133425;28;20085;-66